Viking Amber — 9V7985 — position and weather

sailwx.info

Track history (hours):
 
Tides and Currents Weather Stations Pressure Air Temp Water Temp Dewpoint Dewpoint Depression Visibility Wind Speed Wind Dir Waves Ship Positions

Viking Amber

Last reported at 2018-May-27 01:19 UTC. Time now 2018-Jun-22 05:42 UTC.
Position N 01°23' E 103°16'.
Warning: this ship's position is 26 days out of date.

Length 167 m; draft 8.4 m.

Type: Cargo ship. MMSI: 563255000.

Date/timePositionNaut miles runAvg speedWind from/ knotsBaromVisibWave heightAir tempDewpointWater temp
2018-May-27 01:19N 01°23' E 103°16'514.2
2018-May-27 01:00N 01°19' E 103°20'714.6
2018-May-27 00:29N 01°14' E 103°25'714.7
2018-May-27 00:00N 01°12' E 103°32'714.9
2018-May-26 23:30N 01°11' E 103°39'714.2
2018-May-26 23:00N 01°10' E 103°46'611.6
2018-May-26 22:30N 01°12' E 103°51'3 5.6
2018-May-26 22:00N 01°15' E 103°53'0 0.5
2018-May-26 21:30N 01°15' E 103°53'0 0.1
2018-May-26 21:00N 01°15' E 103°53'0 0.0
2018-May-26 20:30N 01°15' E 103°53'0 0.0
2018-May-26 20:00N 01°15' E 103°53'0 0.0
2018-May-26 19:25N 01°15' E 103°53'0 0.0
2018-May-26 19:00N 01°15' E 103°53'0 0.0
2018-May-26 18:30N 01°15' E 103°53'0 0.0
2018-May-26 17:58N 01°15' E 103°53'0 0.0
2018-May-26 17:30N 01°15' E 103°53'0 0.0
2018-May-26 17:00N 01°15' E 103°53'0 0.0
2018-May-26 16:30N 01°15' E 103°53'0 0.1
2018-May-26 16:00N 01°15' E 103°53'0 0.1
2018-May-26 15:30N 01°15' E 103°53'0 0.1
2018-May-26 15:00N 01°15' E 103°53'0 0.1
2018-May-26 14:28N 01°15' E 103°53'0 0.0
2018-May-26 14:00N 01°15' E 103°53'0 0.0
2018-May-26 13:27N 01°15' E 103°53'0 0.0
2018-May-26 13:00N 01°15' E 103°53'0 0.0
2018-May-26 12:25N 01°15' E 103°53'0 0.0
2018-May-26 12:00N 01°15' E 103°53'0 0.0
2018-May-26 11:28N 01°15' E 103°53'0 0.0
2018-May-26 11:00N 01°15' E 103°53'0 0.0
2018-May-26 10:30N 01°15' E 103°53'0 0.0
2018-May-26 10:00N 01°15' E 103°53'2 3.2
2018-May-26 09:30N 01°14' E 103°54'3 5.8
2018-May-26 09:01N 01°15' E 103°56'5 9.3
2018-May-26 08:30N 01°16' E 104°01'5 9.2
2018-May-26 07:56N 01°17' E 104°06'4 8.4
2018-May-26 07:29N 01°17' E 104°10'5 9.9
2018-May-26 06:58N 01°17' E 104°15'611.6
2018-May-26 06:27N 01°19' E 104°21'  
2018-May-21 18:27N 22°28' E 119°25'614.2
2018-May-21 18:00N 22°33' E 119°29'2513.9
2018-May-21 16:11N 22°55' E 119°43'614.2
2018-May-21 15:45N 23°01' E 119°45'  
Track history (hours):
 
Tides and Currents Weather Stations Pressure Air Temp Water Temp Dewpoint Dewpoint Depression Visibility Wind Speed Wind Dir Waves Ship Positions

Viking Amber

Last reported at 2018-May-27 01:19 UTC. Time now 2018-Jun-22 05:42 UTC.
Position N 01°23' E 103°16'.
Warning: this ship's position is 26 days out of date.

Length 167 m; draft 8.4 m.

Type: Cargo ship. MMSI: 563255000.

Date/timePositionNaut miles runAvg speedWind from/ knotsBaromVisibWave heightAir tempDewpointWater temp
2018-May-27 01:19N 01°23' E 103°16'514.2
2018-May-27 01:00N 01°19' E 103°20'714.6
2018-May-27 00:29N 01°14' E 103°25'714.7
2018-May-27 00:00N 01°12' E 103°32'714.9
2018-May-26 23:30N 01°11' E 103°39'714.2
2018-May-26 23:00N 01°10' E 103°46'611.6
2018-May-26 22:30N 01°12' E 103°51'3 5.6
2018-May-26 22:00N 01°15' E 103°53'0 0.5
2018-May-26 21:30N 01°15' E 103°53'0 0.1
2018-May-26 21:00N 01°15' E 103°53'0 0.0
2018-May-26 20:30N 01°15' E 103°53'0 0.0
2018-May-26 20:00N 01°15' E 103°53'0 0.0
2018-May-26 19:25N 01°15' E 103°53'0 0.0
2018-May-26 19:00N 01°15' E 103°53'0 0.0
2018-May-26 18:30N 01°15' E 103°53'0 0.0
2018-May-26 17:58N 01°15' E 103°53'0 0.0
2018-May-26 17:30N 01°15' E 103°53'0 0.0
2018-May-26 17:00N 01°15' E 103°53'0 0.0
2018-May-26 16:30N 01°15' E 103°53'0 0.1
2018-May-26 16:00N 01°15' E 103°53'0 0.1
2018-May-26 15:30N 01°15' E 103°53'0 0.1
2018-May-26 15:00N 01°15' E 103°53'0 0.1
2018-May-26 14:28N 01°15' E 103°53'0 0.0
2018-May-26 14:00N 01°15' E 103°53'0 0.0
2018-May-26 13:27N 01°15' E 103°53'0 0.0
2018-May-26 13:00N 01°15' E 103°53'0 0.0
2018-May-26 12:25N 01°15' E 103°53'0 0.0
2018-May-26 12:00N 01°15' E 103°53'0 0.0
2018-May-26 11:28N 01°15' E 103°53'0 0.0
2018-May-26 11:00N 01°15' E 103°53'0 0.0
2018-May-26 10:30N 01°15' E 103°53'0 0.0
2018-May-26 10:00N 01°15' E 103°53'2 3.2
2018-May-26 09:30N 01°14' E 103°54'3 5.8
2018-May-26 09:01N 01°15' E 103°56'5 9.3
2018-May-26 08:30N 01°16' E 104°01'5 9.2
2018-May-26 07:56N 01°17' E 104°06'4 8.4
2018-May-26 07:29N 01°17' E 104°10'5 9.9
2018-May-26 06:58N 01°17' E 104°15'611.6
2018-May-26 06:27N 01°19' E 104°21'  
2018-May-21 18:27N 22°28' E 119°25'614.2
2018-May-21 18:00N 22°33' E 119°29'2513.9
2018-May-21 16:11N 22°55' E 119°43'614.2
2018-May-21 15:45N 23°01' E 119°45'  

Dump ship's entire track history